Time;durP1;ratioP1;P1;durP2;ratioP2;P2;SDS_P1;SDS_P2;PMS_P1;PMS_P2;Temp;Humidity;BMP_temperature;BMP_pressure;BME280_temperature;BME280_humidity;BME280_pressure;Samples;Min_cycle;Max_cycle;Signal;HPM_P1;HPM_P2
2022/08/02 00:01:17;;;;;;;;;;;22.60;46.50;;;;;;5084068;28;19974;-61
2022/08/02 00:03:44;;;;;;;;;;;22.60;46.50;;;;;;5073111;28;19954;-61
2022/08/02 00:06:12;;;;;;;;;;;22.60;46.40;;;;;;5071665;28;19920;-61
2022/08/02 00:08:38;;;;;;;;;;;22.60;46.40;;;;;;5083350;28;20254;-61
2022/08/02 00:11:05;;;;;;;;;;;22.60;46.40;;;;;;5084312;28;19920;-61
2022/08/02 00:13:32;;;;;;;;;;;22.60;46.40;;;;;;5071309;28;20002;-61
2022/08/02 00:15:59;;;;;;;;;;;22.60;46.40;;;;;;5069243;28;20627;-60
2022/08/02 00:18:26;;;;;;;;;;;22.60;46.40;;;;;;5071063;28;19925;-62
2022/08/02 00:20:52;;;;;;;;;;;22.60;46.30;;;;;;5070185;28;20084;-61
2022/08/02 00:23:20;;;;;;;;;;;22.60;46.30;;;;;;5070165;28;19942;-60
2022/08/02 00:25:47;;;;;;;;;;;22.60;46.40;;;;;;5082097;28;20453;-60
2022/08/02 00:28:14;;;;;;;;;;;22.60;46.30;;;;;;5084348;28;19924;-60
2022/08/02 00:30:41;;;;;;;;;;;22.60;46.40;;;;;;5071100;28;19920;-61
2022/08/02 00:33:08;;;;;;;;;;;22.60;46.30;;;;;;5053016;28;19927;-61
2022/08/02 00:35:34;;;;;;;;;;;22.60;46.30;;;;;;5071325;28;19924;-61
2022/08/02 00:38:02;;;;;;;;;;;22.60;46.30;;;;;;5071790;28;19928;-61
2022/08/02 00:40:30;;;;;;;;;;;22.60;46.30;;;;;;5081814;28;19974;-61
2022/08/02 00:43:00;;;;;;;;;;;22.60;46.30;;;;;;5071709;28;19958;-61
2022/08/02 00:45:27;;;;;;;;;;;22.60;46.30;;;;;;5072336;28;19943;-61
2022/08/02 00:47:53;;;;;;;;;;;22.60;46.30;;;;;;5083582;28;20321;-61
2022/08/02 00:50:20;;;;;;;;;;;22.60;46.30;;;;;;5070890;28;19970;-60
2022/08/02 00:52:47;;;;;;;;;;;22.50;46.20;;;;;;5080789;28;19925;-61
2022/08/02 00:55:14;;;;;;;;;;;22.60;46.30;;;;;;5071457;28;19924;-61
2022/08/02 00:57:42;;;;;;;;;;;22.60;46.20;;;;;;5079080;28;19920;-60
2022/08/02 01:00:09;;;;;;;;;;;22.60;46.20;;;;;;5067304;28;19920;-60
2022/08/02 01:02:36;;;;;;;;;;;22.60;46.20;;;;;;5066003;28;19942;-61
2022/08/02 01:05:03;;;;;;;;;;;22.50;46.20;;;;;;5079812;28;20345;-60
2022/08/02 01:07:30;;;;;;;;;;;22.60;46.20;;;;;;5069472;28;19920;-61
2022/08/02 01:09:56;;;;;;;;;;;22.60;46.20;;;;;;5068788;28;19928;-60
2022/08/02 01:12:23;;;;;;;;;;;22.50;46.10;;;;;;5072673;28;19921;-61
2022/08/02 01:14:51;;;;;;;;;;;22.50;46.10;;;;;;5079372;28;20328;-61
2022/08/02 01:17:19;;;;;;;;;;;22.60;46.20;;;;;;5067723;28;19973;-61
2022/08/02 01:19:47;;;;;;;;;;;22.50;46.10;;;;;;5071240;28;20031;-61
2022/08/02 01:22:20;;;;;;;;;;;22.60;46.20;;;;;;5068692;28;19984;-61
2022/08/02 01:24:57;;;;;;;;;;;22.60;46.20;;;;;;5065255;28;19970;-61
2022/08/02 01:27:28;;;;;;;;;;;22.60;46.30;;;;;;5071482;28;20528;-61
2022/08/02 01:29:57;;;;;;;;;;;22.50;46.20;;;;;;5079423;28;19924;-61
2022/08/02 01:32:25;;;;;;;;;;;22.50;46.20;;;;;;5070077;28;19924;-60
2022/08/02 01:34:53;;;;;;;;;;;22.60;46.30;;;;;;5068734;28;19927;-61
2022/08/02 01:37:21;;;;;;;;;;;22.50;46.20;;;;;;5087250;28;19923;-61
2022/08/02 01:39:51;;;;;;;;;;;22.50;46.30;;;;;;5079214;28;20413;-61
2022/08/02 01:42:18;;;;;;;;;;;22.60;46.30;;;;;;5070614;28;20039;-61
2022/08/02 01:44:45;;;;;;;;;;;22.50;46.30;;;;;;5083016;28;20019;-61
2022/08/02 01:47:16;;;;;;;;;;;22.60;46.30;;;;;;5070001;28;19924;-61
2022/08/02 01:49:43;;;;;;;;;;;22.50;46.30;;;;;;5081889;28;19931;-61
2022/08/02 01:52:22;;;;;;;;;;;22.50;46.20;;;;;;5071435;28;19924;-61
2022/08/02 01:54:49;;;;;;;;;;;22.60;46.30;;;;;;5083613;28;19924;-61
2022/08/02 01:57:16;;;;;;;;;;;22.60;46.30;;;;;;5071333;28;19921;-61
2022/08/02 01:59:43;;;;;;;;;;;22.60;46.20;;;;;;5070391;28;19928;-61
2022/08/02 02:02:10;;;;;;;;;;;22.50;46.20;;;;;;5071660;28;20365;-61
2022/08/02 02:04:38;;;;;;;;;;;22.50;46.20;;;;;;5079556;28;19920;-61
2022/08/02 02:07:04;;;;;;;;;;;22.50;46.20;;;;;;5070585;28;19928;-61
2022/08/02 02:09:31;;;;;;;;;;;22.50;46.20;;;;;;5068007;28;19927;-61
2022/08/02 02:11:59;;;;;;;;;;;22.50;46.20;;;;;;5079364;28;19928;-60
2022/08/02 02:14:25;;;;;;;;;;;22.50;46.20;;;;;;5071373;28;19960;-60
2022/08/02 02:16:52;;;;;;;;;;;22.50;46.20;;;;;;5070081;28;19924;-61
2022/08/02 02:19:19;;;;;;;;;;;22.50;46.10;;;;;;5080490;28;19920;-61
2022/08/02 02:21:47;;;;;;;;;;;22.50;46.10;;;;;;5068875;28;20444;-61
2022/08/02 02:24:14;;;;;;;;;;;22.50;46.10;;;;;;5080765;28;19982;-61
2022/08/02 02:26:40;;;;;;;;;;;22.50;46.10;;;;;;5069892;28;20035;-61
2022/08/02 02:29:08;;;;;;;;;;;22.50;46.10;;;;;;5079169;28;19920;-62
2022/08/02 02:31:36;;;;;;;;;;;22.50;46.10;;;;;;5081224;28;19971;-61
2022/08/02 02:34:04;;;;;;;;;;;22.50;46.00;;;;;;5070387;28;19980;-61
2022/08/02 02:36:31;;;;;;;;;;;22.50;46.00;;;;;;5070788;28;19931;-61
2022/08/02 02:39:00;;;;;;;;;;;22.50;46.00;;;;;;5069517;28;19924;-61
2022/08/02 02:41:26;;;;;;;;;;;22.50;46.00;;;;;;5070606;28;19924;-61
2022/08/02 02:43:53;;;;;;;;;;;22.50;46.00;;;;;;5070370;28;19920;-61
2022/08/02 02:46:20;;;;;;;;;;;22.50;46.00;;;;;;5069866;28;19974;-61
2022/08/02 02:48:47;;;;;;;;;;;22.50;45.90;;;;;;5070804;28;19963;-61
2022/08/02 02:51:13;;;;;;;;;;;22.50;45.90;;;;;;5072799;28;19981;-61
2022/08/02 02:53:40;;;;;;;;;;;22.50;45.90;;;;;;5075029;28;20391;-62
2022/08/02 02:56:08;;;;;;;;;;;22.50;45.90;;;;;;5072151;28;19932;-61
2022/08/02 02:58:35;;;;;;;;;;;22.50;45.80;;;;;;5085413;28;19978;-61
2022/08/02 03:03:46;;;;;;;;;;;22.50;45.80;;;;;;5067194;28;20258;-61
2022/08/02 03:06:13;;;;;;;;;;;22.40;45.70;;;;;;5084431;28;20344;-61
2022/08/02 03:08:40;;;;;;;;;;;22.40;45.70;;;;;;5073928;28;19982;-62
2022/08/02 03:11:07;;;;;;;;;;;22.50;45.80;;;;;;5073435;28;19969;-61
2022/08/02 03:13:35;;;;;;;;;;;22.50;45.80;;;;;;5082508;28;19925;-61
2022/08/02 03:16:01;;;;;;;;;;;22.50;45.80;;;;;;5071573;28;20020;-61
2022/08/02 03:18:31;;;;;;;;;;;22.40;45.70;;;;;;5074093;28;20324;-61
2022/08/02 03:20:59;;;;;;;;;;;22.50;45.80;;;;;;5083579;28;20327;-61
2022/08/02 03:23:26;;;;;;;;;;;22.40;45.70;;;;;;5071881;28;19967;-62
2022/08/02 03:25:53;;;;;;;;;;;22.40;45.70;;;;;;5074554;28;19941;-61
2022/08/02 03:28:19;;;;;;;;;;;22.40;45.70;;;;;;5086065;28;19970;-61
2022/08/02 03:30:48;;;;;;;;;;;22.50;45.70;;;;;;5072289;28;19939;-61
2022/08/02 03:33:14;;;;;;;;;;;22.40;45.60;;;;;;5082063;28;19973;-61
2022/08/02 03:35:41;;;;;;;;;;;22.40;45.60;;;;;;5083664;28;19924;-62
2022/08/02 03:38:08;;;;;;;;;;;22.40;45.60;;;;;;5083834;28;20322;-61
2022/08/02 03:40:35;;;;;;;;;;;22.40;45.60;;;;;;5067170;28;20284;-61
2022/08/02 03:43:01;;;;;;;;;;;22.40;46.20;;;;;;5073235;28;20018;-62
2022/08/02 03:45:28;;;;;;;;;;;22.40;45.50;;;;;;5073592;28;20136;-61
2022/08/02 03:47:56;;;;;;;;;;;22.40;45.50;;;;;;5080861;28;20247;-61
2022/08/02 03:50:24;;;;;;;;;;;22.40;45.50;;;;;;5071894;28;20339;-61
2022/08/02 03:52:51;;;;;;;;;;;22.40;45.50;;;;;;5084373;28;19921;-62
2022/08/02 03:55:18;;;;;;;;;;;22.40;45.50;;;;;;5082941;28;19920;-61
2022/08/02 03:57:44;;;;;;;;;;;22.40;45.50;;;;;;5070914;28;20219;-61
2022/08/02 04:00:12;;;;;;;;;;;22.40;45.50;;;;;;5082610;28;19920;-61
2022/08/02 04:02:38;;;;;;;;;;;22.40;45.50;;;;;;5072023;28;19932;-62
2022/08/02 04:05:08;;;;;;;;;;;22.40;45.50;;;;;;5071264;28;19928;-61
2022/08/02 04:07:35;;;;;;;;;;;22.40;45.50;;;;;;5070337;28;19963;-61
2022/08/02 04:10:02;;;;;;;;;;;22.40;45.50;;;;;;5070949;28;19989;-61
2022/08/02 04:12:29;;;;;;;;;;;22.40;45.50;;;;;;5070634;28;19974;-61
2022/08/02 04:14:55;;;;;;;;;;;22.40;45.50;;;;;;5084282;28;20302;-61
2022/08/02 04:17:22;;;;;;;;;;;22.40;45.50;;;;;;5080262;28;20449;-61
2022/08/02 04:19:51;;;;;;;;;;;22.40;45.40;;;;;;5089719;28;19920;-62
2022/08/02 04:22:21;;;;;;;;;;;22.40;45.40;;;;;;5071130;28;19931;-61
2022/08/02 04:24:49;;;;;;;;;;;22.40;45.40;;;;;;5079985;28;19975;-61
2022/08/02 04:27:16;;;;;;;;;;;22.40;45.40;;;;;;5071319;28;19921;-61
2022/08/02 04:29:43;;;;;;;;;;;22.40;45.40;;;;;;5072673;28;19920;-61
2022/08/02 04:32:10;;;;;;;;;;;22.30;45.30;;;;;;5070602;28;19920;-62
2022/08/02 04:34:37;;;;;;;;;;;22.30;45.30;;;;;;5071354;28;20064;-61
2022/08/02 04:37:03;;;;;;;;;;;22.30;45.30;;;;;;5072338;28;19925;-61
2022/08/02 04:39:32;;;;;;;;;;;22.30;45.30;;;;;;5079910;28;19978;-61
2022/08/02 04:41:59;;;;;;;;;;;22.30;45.30;;;;;;5068695;28;19981;-61
2022/08/02 04:44:25;;;;;;;;;;;22.30;45.30;;;;;;5072063;28;19925;-61
2022/08/02 04:46:53;;;;;;;;;;;22.30;45.30;;;;;;5082314;28;19943;-61
2022/08/02 04:49:20;;;;;;;;;;;22.30;45.20;;;;;;5071465;28;20013;-61
2022/08/02 04:51:47;;;;;;;;;;;22.30;45.20;;;;;;5070735;28;20306;-61
2022/08/02 04:54:13;;;;;;;;;;;22.30;45.30;;;;;;5070484;28;19986;-61
2022/08/02 04:56:42;;;;;;;;;;;22.30;45.20;;;;;;5070835;28;19924;-62
2022/08/02 04:59:08;;;;;;;;;;;22.30;45.30;;;;;;5068833;28;19924;-61
2022/08/02 05:01:35;;;;;;;;;;;22.30;45.20;;;;;;5078705;28;19924;-61
2022/08/02 05:04:02;;;;;;;;;;;22.30;45.20;;;;;;5082130;28;19920;-61
2022/08/02 05:06:29;;;;;;;;;;;22.30;45.20;;;;;;5083553;28;19924;-61
2022/08/02 05:08:55;;;;;;;;;;;22.30;45.20;;;;;;5069278;28;19982;-61
2022/08/02 05:11:23;;;;;;;;;;;22.30;45.20;;;;;;5068563;28;19969;-61
2022/08/02 05:13:51;;;;;;;;;;;22.30;45.20;;;;;;5069520;28;19920;-61
2022/08/02 05:16:18;;;;;;;;;;;22.30;45.30;;;;;;5071562;28;19924;-62
2022/08/02 05:18:44;;;;;;;;;;;22.30;45.30;;;;;;5068455;28;20311;-61
2022/08/02 05:21:11;;;;;;;;;;;22.30;45.30;;;;;;5069723;28;20078;-61
2022/08/02 05:23:38;;;;;;;;;;;22.30;45.30;;;;;;5081654;28;19958;-61
2022/08/02 05:26:05;;;;;;;;;;;22.30;45.30;;;;;;5077059;28;19939;-61
2022/08/02 05:28:32;;;;;;;;;;;22.30;45.30;;;;;;5088648;28;19947;-61
2022/08/02 05:31:00;;;;;;;;;;;22.30;45.40;;;;;;5069453;28;20449;-61
2022/08/02 05:33:26;;;;;;;;;;;22.30;45.40;;;;;;5071635;28;19950;-61
2022/08/02 05:35:53;;;;;;;;;;;22.30;45.40;;;;;;5071555;28;19955;-61
2022/08/02 05:38:20;;;;;;;;;;;22.30;45.40;;;;;;5067845;28;19927;-65
2022/08/02 05:40:47;;;;;;;;;;;22.30;45.40;;;;;;5069076;28;20369;-60
2022/08/02 05:43:14;;;;;;;;;;;22.30;45.40;;;;;;5065133;28;19920;-61
2022/08/02 05:45:40;;;;;;;;;;;22.30;45.50;;;;;;5066909;28;19936;-60
2022/08/02 05:48:09;;;;;;;;;;;22.30;45.50;;;;;;5066748;28;20375;-61
2022/08/02 05:50:37;;;;;;;;;;;22.30;45.60;;;;;;5065641;28;19966;-60
2022/08/02 05:53:05;;;;;;;;;;;22.30;45.60;;;;;;5081323;28;19920;-60
2022/08/02 05:55:33;;;;;;;;;;;22.30;45.70;;;;;;5064879;28;19920;-60
2022/08/02 05:58:02;;;;;;;;;;;22.30;45.70;;;;;;5068040;28;19934;-60
2022/08/02 06:00:29;;;;;;;;;;;22.30;45.80;;;;;;5065441;28;19965;-60
2022/08/02 06:03:08;;;;;;;;;;;22.30;45.80;;;;;;5079423;28;19924;-60
2022/08/02 06:05:40;;;;;;;;;;;22.30;45.80;;;;;;5078519;28;19967;-61
2022/08/02 06:08:09;;;;;;;;;;;22.30;45.90;;;;;;5067128;28;19940;-60
2022/08/02 06:10:36;;;;;;;;;;;22.30;45.90;;;;;;5084788;28;19920;-60
2022/08/02 06:13:06;;;;;;;;;;;22.30;45.90;;;;;;5071875;28;20320;-61
2022/08/02 06:15:33;;;;;;;;;;;22.30;45.90;;;;;;5070508;28;19926;-61
2022/08/02 06:17:59;;;;;;;;;;;22.30;46.00;;;;;;5066373;28;20009;-61
2022/08/02 06:20:26;;;;;;;;;;;22.30;46.00;;;;;;5082111;28;19962;-60
2022/08/02 06:22:54;;;;;;;;;;;22.30;46.00;;;;;;5069088;28;19926;-61
2022/08/02 06:25:21;;;;;;;;;;;22.30;46.10;;;;;;5065754;28;20007;-60
2022/08/02 06:27:48;;;;;;;;;;;22.30;46.10;;;;;;5068545;28;19939;-60
2022/08/02 06:30:14;;;;;;;;;;;22.30;46.10;;;;;;5076538;28;20008;-60
2022/08/02 06:32:41;;;;;;;;;;;22.30;46.10;;;;;;5074196;28;20003;-60
2022/08/02 06:35:08;;;;;;;;;;;22.30;46.10;;;;;;5074432;28;19977;-60
2022/08/02 06:37:36;;;;;;;;;;;22.30;46.10;;;;;;5060808;28;19920;-61
2022/08/02 06:40:06;;;;;;;;;;;22.30;46.10;;;;;;5059667;28;20006;-60
2022/08/02 06:42:35;;;;;;;;;;;22.30;46.20;;;;;;5082534;28;19958;-60
2022/08/02 06:45:02;;;;;;;;;;;22.30;46.20;;;;;;5065015;28;19929;-61
2022/08/02 06:47:28;;;;;;;;;;;22.30;46.20;;;;;;5066564;28;19932;-60
2022/08/02 06:49:55;;;;;;;;;;;22.30;46.20;;;;;;5081898;28;19955;-61
2022/08/02 06:52:23;;;;;;;;;;;22.30;46.20;;;;;;5065854;28;19989;-60
2022/08/02 06:54:49;;;;;;;;;;;22.30;46.30;;;;;;5063081;28;20019;-62
2022/08/02 06:57:17;;;;;;;;;;;22.30;46.30;;;;;;5082501;28;20277;-60
2022/08/02 06:59:44;;;;;;;;;;;22.30;46.20;;;;;;5078321;28;19943;-60
2022/08/02 07:02:11;;;;;;;;;;;22.30;46.30;;;;;;5070920;28;19959;-61
2022/08/02 07:04:38;;;;;;;;;;;22.30;46.30;;;;;;5064238;28;19925;-61
2022/08/02 07:07:05;;;;;;;;;;;22.30;46.30;;;;;;5070366;28;20414;-61
2022/08/02 07:09:31;;;;;;;;;;;22.30;46.30;;;;;;5087050;28;20027;-61
2022/08/02 07:11:58;;;;;;;;;;;22.30;46.30;;;;;;5048888;28;20489;-61
2022/08/02 07:14:26;;;;;;;;;;;22.30;46.30;;;;;;5064411;28;19973;-61
2022/08/02 07:16:53;;;;;;;;;;;22.40;46.40;;;;;;5072996;28;19950;-61
2022/08/02 07:19:20;;;;;;;;;;;22.40;46.40;;;;;;5082633;28;19920;-60
2022/08/02 07:21:46;;;;;;;;;;;22.40;47.00;;;;;;5075384;28;20373;-60
2022/08/02 07:24:13;;;;;;;;;;;22.40;46.50;;;;;;5077945;28;19978;-61
2022/08/02 07:26:40;;;;;;;;;;;22.40;46.50;;;;;;5062801;28;19932;-61
2022/08/02 07:29:06;;;;;;;;;;;22.40;46.50;;;;;;5066545;28;19952;-61
2022/08/02 07:31:35;;;;;;;;;;;22.40;46.50;;;;;;5068418;28;19997;-61
2022/08/02 07:34:02;;;;;;;;;;;22.40;46.60;;;;;;5074724;28;19920;-61
2022/08/02 07:36:28;;;;;;;;;;;22.40;46.60;;;;;;5082105;28;19920;-61
2022/08/02 07:38:56;;;;;;;;;;;22.40;46.60;;;;;;5088517;28;20007;-61
2022/08/02 07:41:23;;;;;;;;;;;22.40;46.60;;;;;;5073259;28;19935;-61
2022/08/02 07:43:50;;;;;;;;;;;22.40;46.60;;;;;;5081392;28;19929;-60
2022/08/02 07:46:16;;;;;;;;;;;22.40;46.60;;;;;;5072114;28;19920;-61
2022/08/02 07:48:45;;;;;;;;;;;22.50;46.70;;;;;;5068745;28;19924;-61
2022/08/02 07:51:12;;;;;;;;;;;22.40;46.60;;;;;;5090479;28;20311;-61
2022/08/02 07:53:38;;;;;;;;;;;22.50;46.80;;;;;;5075340;28;20458;-61
2022/08/02 07:56:05;;;;;;;;;;;22.50;46.80;;;;;;5078026;28;19955;-60
2022/08/02 07:58:32;;;;;;;;;;;22.50;46.80;;;;;;5072998;28;19920;-61
2022/08/02 08:00:58;;;;;;;;;;;22.50;46.80;;;;;;5076822;28;20338;-61
2022/08/02 08:03:25;;;;;;;;;;;22.40;46.70;;;;;;5073791;28;19920;-61
2022/08/02 08:05:53;;;;;;;;;;;22.40;46.70;;;;;;5073199;28;19932;-61
2022/08/02 08:08:20;;;;;;;;;;;22.50;46.80;;;;;;5069323;28;19970;-62
2022/08/02 08:10:47;;;;;;;;;;;22.50;46.90;;;;;;5084621;28;20301;-61
2022/08/02 08:13:13;;;;;;;;;;;22.50;46.80;;;;;;5067836;28;20011;-61
2022/08/02 08:15:40;;;;;;;;;;;22.50;46.90;;;;;;5068808;28;19928;-63
2022/08/02 08:18:07;;;;;;;;;;;22.50;46.90;;;;;;5090893;28;19927;-64
2022/08/02 08:20:33;;;;;;;;;;;22.50;46.90;;;;;;5073941;28;19952;-63
2022/08/02 08:23:01;;;;;;;;;;;22.50;46.90;;;;;;5083395;28;19932;-63
2022/08/02 08:25:28;;;;;;;;;;;22.60;46.90;;;;;;5073117;28;20008;-63
2022/08/02 08:27:55;;;;;;;;;;;22.60;46.90;;;;;;5075359;28;19928;-63
2022/08/02 08:30:22;;;;;;;;;;;22.60;46.80;;;;;;5088045;28;19973;-62
2022/08/02 08:32:49;;;;;;;;;;;22.60;46.80;;;;;;5083922;28;20251;-63
2022/08/02 08:35:16;;;;;;;;;;;22.60;46.80;;;;;;5068792;28;19992;-64
2022/08/02 08:37:43;;;;;;;;;;;22.60;46.70;;;;;;5070935;28;19970;-63
2022/08/02 08:40:11;;;;;;;;;;;22.60;46.70;;;;;;5076396;28;19931;-63
2022/08/02 08:42:38;;;;;;;;;;;22.60;46.70;;;;;;5071571;28;19959;-63
2022/08/02 08:45:05;;;;;;;;;;;22.60;46.70;;;;;;5070411;28;19928;-63
2022/08/02 08:47:33;;;;;;;;;;;22.60;46.70;;;;;;5084100;28;19963;-62
2022/08/02 08:50:00;;;;;;;;;;;22.60;46.70;;;;;;5073574;28;19955;-62
2022/08/02 08:52:27;;;;;;;;;;;22.60;46.70;;;;;;5081040;28;19935;-62
2022/08/02 08:54:54;;;;;;;;;;;22.60;47.20;;;;;;5068510;28;19927;-61
2022/08/02 08:57:22;;;;;;;;;;;22.60;46.60;;;;;;5071208;28;20002;-61
2022/08/02 08:59:48;;;;;;;;;;;22.60;46.60;;;;;;5064589;28;20266;-62
2022/08/02 09:02:16;;;;;;;;;;;22.60;46.60;;;;;;5081259;28;20015;-62
2022/08/02 09:04:42;;;;;;;;;;;22.60;46.60;;;;;;5080952;28;19920;-61
2022/08/02 09:07:09;;;;;;;;;;;22.60;46.50;;;;;;5067756;28;19927;-62
2022/08/02 09:09:36;;;;;;;;;;;22.60;46.60;;;;;;5076998;28;19960;-62
2022/08/02 09:12:13;;;;;;;;;;;22.70;46.70;;;;;;5072579;28;19924;-62
2022/08/02 09:14:41;;;;;;;;;;;22.70;46.70;;;;;;5062542;28;19935;-62
2022/08/02 09:17:08;;;;;;;;;;;22.70;46.60;;;;;;5061594;28;20030;-61
2022/08/02 09:19:35;;;;;;;;;;;22.60;46.80;;;;;;5063267;28;19927;-62
2022/08/02 09:22:03;;;;;;;;;;;22.70;46.70;;;;;;5071918;28;20357;-61
2022/08/02 09:24:30;;;;;;;;;;;22.70;46.70;;;;;;5070149;28;20026;-61
2022/08/02 09:26:57;;;;;;;;;;;22.70;46.70;;;;;;5066629;28;19920;-62
2022/08/02 09:29:23;;;;;;;;;;;22.70;46.70;;;;;;5070216;28;19928;-62
2022/08/02 09:31:52;;;;;;;;;;;22.70;46.70;;;;;;5084435;28;20023;-62
2022/08/02 09:34:18;;;;;;;;;;;22.70;46.70;;;;;;5069223;28;19920;-62
2022/08/02 09:36:46;;;;;;;;;;;22.70;46.80;;;;;;5083947;28;20378;-62
2022/08/02 09:39:13;;;;;;;;;;;22.70;46.80;;;;;;5062689;28;20265;-62
2022/08/02 09:41:41;;;;;;;;;;;22.70;46.80;;;;;;5068444;28;19928;-63
2022/08/02 09:44:09;;;;;;;;;;;22.80;46.90;;;;;;5070808;28;19985;-62
2022/08/02 09:46:37;;;;;;;;;;;22.70;46.80;;;;;;5081506;28;19921;-62
2022/08/02 09:49:06;;;;;;;;;;;22.70;46.70;;;;;;5083982;28;19939;-62
2022/08/02 09:51:34;;;;;;;;;;;22.70;46.70;;;;;;5063504;28;19977;-62
2022/08/02 09:54:02;;;;;;;;;;;22.80;46.80;;;;;;5070666;28;19938;-61
2022/08/02 09:56:29;;;;;;;;;;;22.70;46.80;;;;;;5065777;28;19924;-62
2022/08/02 09:58:56;;;;;;;;;;;22.70;46.70;;;;;;5065541;28;19983;-62
2022/08/02 10:01:30;;;;;;;;;;;22.80;46.80;;;;;;5079671;28;20291;-62
2022/08/02 10:03:57;;;;;;;;;;;22.80;46.80;;;;;;5084211;28;19942;-63
2022/08/02 10:06:25;;;;;;;;;;;22.80;46.80;;;;;;5103892;28;19955;-62
2022/08/02 10:09:11;;;;;;;;;;;22.80;46.80;;;;;;5139944;27;19918;-64
2022/08/02 10:11:38;;;;;;;;;;;22.80;46.80;;;;;;5085796;28;19981;-64
2022/08/02 10:14:05;;;;;;;;;;;22.80;46.70;;;;;;5102184;28;20387;-64
2022/08/02 10:16:33;;;;;;;;;;;22.80;46.70;;;;;;5079569;28;20030;-64
2022/08/02 10:19:03;;;;;;;;;;;22.80;46.70;;;;;;5086255;28;20307;-64
2022/08/02 10:21:32;;;;;;;;;;;22.80;46.60;;;;;;5101809;28;19939;-65
2022/08/02 10:24:00;;;;;;;;;;;22.80;46.60;;;;;;5083385;28;19955;-64
2022/08/02 10:26:28;;;;;;;;;;;22.80;46.60;;;;;;5075115;28;19931;-64
2022/08/02 10:28:55;;;;;;;;;;;22.90;46.60;;;;;;5101022;28;20389;-65
2022/08/02 10:31:23;;;;;;;;;;;22.80;46.50;;;;;;5074960;28;19938;-64
2022/08/02 10:33:51;;;;;;;;;;;22.90;46.60;;;;;;5105023;27;19921;-64
2022/08/02 10:36:18;;;;;;;;;;;22.90;46.40;;;;;;5073571;28;19955;-64
2022/08/02 10:38:45;;;;;;;;;;;22.80;46.30;;;;;;5100060;28;19935;-64
2022/08/02 10:41:12;;;;;;;;;;;22.90;46.30;;;;;;5073507;28;19925;-64
2022/08/02 10:43:44;;;;;;;;;;;22.90;46.20;;;;;;5090357;28;19921;-64
2022/08/02 10:46:20;;;;;;;;;;;22.90;46.10;;;;;;5093905;28;19921;-64
2022/08/02 10:49:01;;;;;;;;;;;22.80;45.90;;;;;;5103469;27;19967;-64
2022/08/02 10:51:35;;;;;;;;;;;22.80;45.70;;;;;;5078521;28;19920;-64
2022/08/02 10:54:07;;;;;;;;;;;22.80;45.70;;;;;;5100661;28;19935;-63
2022/08/02 10:56:45;;;;;;;;;;;22.80;45.60;;;;;;5094791;28;19920;-64
2022/08/02 10:59:24;;;;;;;;;;;22.80;45.40;;;;;;5113652;28;19947;-63
2022/08/02 11:01:52;;;;;;;;;;;22.80;45.20;;;;;;5091759;28;19928;-64
2022/08/02 11:04:18;;;;;;;;;;;22.80;45.20;;;;;;5102480;28;19920;-64
2022/08/02 11:07:04;;;;;;;;;;;22.80;45.30;;;;;;5097154;28;19947;-64
2022/08/02 11:09:31;;;;;;;;;;;22.80;45.20;;;;;;5076512;28;19974;-63
2022/08/02 11:11:59;;;;;;;;;;;22.80;45.00;;;;;;5106670;27;19927;-64
2022/08/02 11:14:27;;;;;;;;;;;22.90;45.30;;;;;;5078443;28;20291;-64
2022/08/02 11:17:08;;;;;;;;;;;22.80;45.10;;;;;;5092207;28;19932;-65
2022/08/02 11:19:35;;;;;;;;;;;22.80;45.20;;;;;;5061831;28;20383;-65
2022/08/02 11:22:02;;;;;;;;;;;22.90;45.30;;;;;;5074496;28;19920;-63
2022/08/02 11:24:29;;;;;;;;;;;22.90;45.40;;;;;;5080339;28;19921;-63
2022/08/02 11:26:56;;;;;;;;;;;22.90;45.40;;;;;;5087525;28;19924;-65
2022/08/02 11:29:23;;;;;;;;;;;22.90;45.40;;;;;;5062336;28;19928;-64
2022/08/02 11:31:51;;;;;;;;;;;22.90;45.40;;;;;;5085267;28;20445;-64
2022/08/02 11:34:18;;;;;;;;;;;22.90;45.40;;;;;;5083435;28;19924;-64
2022/08/02 11:36:46;;;;;;;;;;;22.90;45.30;;;;;;5066264;28;20278;-64
2022/08/02 11:39:12;;;;;;;;;;;22.90;45.30;;;;;;5077101;28;19947;-64
2022/08/02 11:41:39;;;;;;;;;;;23.00;45.30;;;;;;5087145;28;20223;-63
2022/08/02 11:44:06;;;;;;;;;;;22.90;45.20;;;;;;5067121;28;19924;-66
2022/08/02 11:46:33;;;;;;;;;;;22.90;45.10;;;;;;5071698;28;19933;-63
2022/08/02 11:49:13;;;;;;;;;;;23.00;45.10;;;;;;5087650;28;19921;-63
2022/08/02 11:51:50;;;;;;;;;;;23.00;45.10;;;;;;5067244;28;20033;-63
2022/08/02 11:54:22;;;;;;;;;;;23.00;45.00;;;;;;5058091;28;19973;-63
2022/08/02 11:56:49;;;;;;;;;;;23.00;44.90;;;;;;5092719;28;19927;-63
2022/08/02 11:59:15;;;;;;;;;;;23.00;45.00;;;;;;5066768;28;19970;-63
2022/08/02 12:01:42;;;;;;;;;;;23.00;44.90;;;;;;5073415;28;19924;-63
2022/08/02 12:04:09;;;;;;;;;;;23.00;45.00;;;;;;5086877;28;19920;-64
2022/08/02 12:06:37;;;;;;;;;;;23.00;44.90;;;;;;5087235;28;19958;-64
2022/08/02 12:09:04;;;;;;;;;;;23.10;44.90;;;;;;5073603;28;19960;-64
2022/08/02 12:11:31;;;;;;;;;;;23.10;45.00;;;;;;5088917;28;19956;-64
2022/08/02 12:13:58;;;;;;;;;;;23.10;45.10;;;;;;5076118;28;19925;-65
2022/08/02 12:19:18;;;;;;;;;;;23.10;45.30;;;;;;5072230;28;19921;-64
2022/08/02 12:21:46;;;;;;;;;;;23.10;45.30;;;;;;5075190;28;19924;-64
2022/08/02 12:24:13;;;;;;;;;;;23.10;45.40;;;;;;5101351;28;20369;-65
2022/08/02 12:26:43;;;;;;;;;;;23.20;45.40;;;;;;5086672;28;19931;-65
2022/08/02 12:29:10;;;;;;;;;;;23.10;45.40;;;;;;5068350;28;19921;-64
2022/08/02 12:31:40;;;;;;;;;;;23.10;45.40;;;;;;5109054;27;19920;-64
2022/08/02 12:34:16;;;;;;;;;;;23.20;45.60;;;;;;5070044;28;20263;-64
2022/08/02 12:36:43;;;;;;;;;;;23.20;45.60;;;;;;5085297;28;19946;-64
2022/08/02 12:39:12;;;;;;;;;;;23.20;45.70;;;;;;5086269;28;20019;-64
2022/08/02 12:41:38;;;;;;;;;;;23.20;45.70;;;;;;5071287;28;20298;-64
2022/08/02 12:44:05;;;;;;;;;;;23.20;45.70;;;;;;5067761;28;19990;-64
2022/08/02 12:46:32;;;;;;;;;;;23.20;45.70;;;;;;5069796;28;19921;-64
2022/08/02 12:48:59;;;;;;;;;;;23.20;45.70;;;;;;5067570;28;20424;-64
2022/08/02 12:51:27;;;;;;;;;;;23.20;45.70;;;;;;5086798;28;20020;-64
2022/08/02 12:53:56;;;;;;;;;;;23.20;45.80;;;;;;5065890;28;19968;-64
2022/08/02 12:56:31;;;;;;;;;;;23.20;46.40;;;;;;5078222;28;20321;-64
2022/08/02 12:58:57;;;;;;;;;;;23.30;45.90;;;;;;5086494;28;19921;-64
2022/08/02 13:01:25;;;;;;;;;;;23.30;45.90;;;;;;5085934;28;20391;-64
2022/08/02 13:03:52;;;;;;;;;;;23.30;45.90;;;;;;5060279;28;19920;-64
2022/08/02 13:06:18;;;;;;;;;;;23.30;45.90;;;;;;5094746;28;19921;-64
2022/08/02 13:08:45;;;;;;;;;;;23.30;45.90;;;;;;5085249;28;19929;-65
2022/08/02 13:11:12;;;;;;;;;;;23.30;45.90;;;;;;5094854;28;19920;-64
2022/08/02 13:13:41;;;;;;;;;;;23.30;46.00;;;;;;5067710;28;20341;-64
2022/08/02 13:16:08;;;;;;;;;;;23.30;46.00;;;;;;5092240;28;20015;-64
2022/08/02 13:18:35;;;;;;;;;;;23.30;46.00;;;;;;5096110;28;20348;-64
2022/08/02 13:21:03;;;;;;;;;;;23.30;46.00;;;;;;5078944;28;19920;-64
2022/08/02 13:23:30;;;;;;;;;;;23.30;46.00;;;;;;5075004;28;20308;-64
2022/08/02 13:25:57;;;;;;;;;;;23.30;46.00;;;;;;5083535;28;19924;-64
2022/08/02 13:28:23;;;;;;;;;;;23.30;46.00;;;;;;5074958;28;19993;-64
2022/08/02 13:30:52;;;;;;;;;;;23.30;46.00;;;;;;5090292;28;20222;-64
2022/08/02 13:33:18;;;;;;;;;;;23.40;46.10;;;;;;5081659;28;19920;-64
2022/08/02 13:35:45;;;;;;;;;;;23.30;46.00;;;;;;5095772;28;20381;-64
2022/08/02 13:38:12;;;;;;;;;;;23.30;46.00;;;;;;5076558;28;19940;-65
2022/08/02 13:41:07;;;;;;;;;;;23.30;45.90;;;;;;5076651;28;19920;-65
2022/08/02 13:43:26;;;;;;;;;;;23.30;46.00;;;;;;5106122;27;19920;-65
2022/08/02 13:45:54;;;;;;;;;;;23.30;46.00;;;;;;5085426;28;21294;-64
2022/08/02 13:48:20;;;;;;;;;;;23.30;45.90;;;;;;5079091;28;20018;-65
2022/08/02 13:50:47;;;;;;;;;;;23.30;46.00;;;;;;5072354;28;19973;-64
2022/08/02 13:53:14;;;;;;;;;;;23.30;46.00;;;;;;5099031;28;19927;-65
2022/08/02 13:55:41;;;;;;;;;;;23.30;46.00;;;;;;5079115;28;19982;-65
2022/08/02 13:58:08;;;;;;;;;;;23.40;46.10;;;;;;5074465;28;19936;-64
2022/08/02 14:00:35;;;;;;;;;;;23.40;46.10;;;;;;5096770;28;20027;-65
2022/08/02 14:03:03;;;;;;;;;;;23.40;46.10;;;;;;5082089;28;19924;-64
2022/08/02 14:05:30;;;;;;;;;;;23.40;46.10;;;;;;5089170;28;19978;-65
2022/08/02 14:07:56;;;;;;;;;;;23.40;46.10;;;;;;5095849;28;20369;-65
2022/08/02 14:10:24;;;;;;;;;;;23.40;46.10;;;;;;5078364;28;19926;-64
2022/08/02 14:12:51;;;;;;;;;;;23.40;46.10;;;;;;5078601;28;20035;-65
2022/08/02 14:15:18;;;;;;;;;;;23.40;46.10;;;;;;5088780;28;19935;-65
2022/08/02 14:17:45;;;;;;;;;;;23.40;46.10;;;;;;5073369;28;19921;-65
2022/08/02 14:20:13;;;;;;;;;;;23.40;46.10;;;;;;5080089;28;20199;-65
2022/08/02 14:22:40;;;;;;;;;;;23.40;46.10;;;;;;5092753;28;19947;-64
2022/08/02 14:25:07;;;;;;;;;;;23.40;46.10;;;;;;5093322;28;19931;-65